< < Back
Terminal Aerodrome Forecast


Current Version              Previous Versions:   1  2  3  4  5  6  7  8  9  

Terminal Aerodrome Forecast

011
FTUS42 KMLB 131459 AAA
TAFMCO
TAF AMD
KMCO 131459Z 1315/1412 34011KT P6SM SKC
     FM131600 35012G18KT P6SM SKC
     FM140000 01008KT P6SM SKC=

Latest METAR

335
SAUS70 KWBC 131500 RRD
MTRMCO
METAR KMCO 131453Z 34009KT 10SM CLR 17/09 A3026 RMK AO2 SLP245 T01720089
51018


USA.gov is the U.S. government's official web portal to all federal, state and local government web resources and services.